createdAt,value
2019-02-21T00:00:41.625Z,19.40
2019-02-21T00:01:41.551Z,22.60
2019-02-21T00:02:41.474Z,24.50
2019-02-21T00:03:41.388Z,26.20
2019-02-21T00:04:41.315Z,27.50
2019-02-21T00:05:41.256Z,28.40
2019-02-21T00:06:41.189Z,29.20
2019-02-21T00:07:41.095Z,28.50
2019-02-21T00:08:41.019Z,28.70
2019-02-21T00:09:40.978Z,29.50
2019-02-21T00:10:40.875Z,30.40
2019-02-21T00:11:40.810Z,30.60
2019-02-21T00:12:40.736Z,30.50
2019-02-21T00:13:40.654Z,31.90
2019-02-21T00:14:40.583Z,31.50
2019-02-21T00:15:40.527Z,31.10
2019-02-21T00:16:40.454Z,31.30
2019-02-21T00:17:40.371Z,32.70
2019-02-21T00:18:40.301Z,31.30
2019-02-21T00:19:40.209Z,30.80
2019-02-21T00:20:40.138Z,30.60
2019-02-21T00:21:40.080Z,30.80
2019-02-21T00:22:40.004Z,31.00
2019-02-21T00:23:39.917Z,31.50
2019-02-21T00:24:40.149Z,30.00
2019-02-21T00:25:39.781Z,30.00
2019-02-21T00:26:39.695Z,30.30
2019-02-21T00:27:39.637Z,29.60
2019-02-21T00:28:39.565Z,30.10
2019-02-21T00:29:39.484Z,30.80
2019-02-21T00:30:39.413Z,30.70
2019-02-21T00:31:40.162Z,30.50
2019-02-21T00:32:39.255Z,30.30
2019-02-21T00:33:39.185Z,30.30
2019-02-21T00:34:39.104Z,30.80
2019-02-21T00:35:39.043Z,29.80
2019-02-21T00:36:38.982Z,30.60
2019-02-21T00:37:38.882Z,31.20
2019-02-21T00:38:38.811Z,29.80
2019-02-21T00:39:38.744Z,30.70
2019-02-21T00:40:38.680Z,30.60
2019-02-21T00:41:38.596Z,30.60
2019-02-21T00:42:38.530Z,30.80
2019-02-21T00:43:38.438Z,31.00
2019-02-21T00:44:38.406Z,30.20
2019-02-21T00:45:38.301Z,30.90
2019-02-21T00:46:38.226Z,30.50
2019-02-21T00:47:38.155Z,31.50
2019-02-21T00:48:38.084Z,31.40
2019-02-21T00:49:38.009Z,31.40
2019-02-21T00:50:37.930Z,32.30
2019-02-21T00:51:37.849Z,32.10
2019-02-21T00:52:37.775Z,32.70
2019-02-21T00:53:37.710Z,31.70
2019-02-21T00:54:37.641Z,32.10
2019-02-21T00:55:37.553Z,32.00
2019-02-21T00:56:37.477Z,32.20
2019-02-21T00:57:37.405Z,31.90
2019-02-21T00:58:37.342Z,32.80
2019-02-21T00:59:37.269Z,32.60
2019-02-21T01:00:45.935Z,32.40
2019-02-21T01:01:37.143Z,32.10
2019-02-21T01:02:37.062Z,32.30
2019-02-21T01:03:36.961Z,32.10
2019-02-21T01:04:36.951Z,32.30
2019-02-21T01:05:36.809Z,31.00
2019-02-21T01:06:36.751Z,30.40
2019-02-21T01:07:36.674Z,31.40
2019-02-21T01:08:36.604Z,30.90
2019-02-21T01:09:36.518Z,31.30
2019-02-21T01:10:36.441Z,31.10
2019-02-21T01:11:36.380Z,31.00
2019-02-21T01:12:36.305Z,31.10
2019-02-21T01:13:36.231Z,31.30
2019-02-21T01:14:36.164Z,30.40
2019-02-21T01:15:36.073Z,31.70
2019-02-21T01:16:35.995Z,30.90
2019-02-21T01:17:35.939Z,30.00
2019-02-21T01:18:35.876Z,32.00
2019-02-21T01:19:35.781Z,30.30
2019-02-21T01:20:35.701Z,30.40
2019-02-21T01:21:35.643Z,29.50
2019-02-21T01:22:35.587Z,29.80
2019-02-21T01:23:35.495Z,29.50
2019-02-21T01:24:35.475Z,30.30
2019-02-21T01:25:35.331Z,30.50
2019-02-21T01:26:35.268Z,30.20
2019-02-21T01:27:35.192Z,29.20
2019-02-21T01:28:35.125Z,30.30
2019-02-21T01:29:35.049Z,30.30
2019-02-21T01:30:34.975Z,28.00
2019-02-21T01:31:34.889Z,23.90
2019-02-21T01:32:34.838Z,23.70
2019-02-21T01:33:34.745Z,22.70
2019-02-21T01:34:34.663Z,20.60
2019-02-21T01:35:34.600Z,20.50
2019-02-21T01:36:34.532Z,20.70
2019-02-21T01:37:34.459Z,19.20
2019-02-21T01:38:34.382Z,19.40
2019-02-21T01:39:34.295Z,19.40
2019-02-21T01:40:34.224Z,20.40
2019-02-21T01:41:34.164Z,19.30
2019-02-21T01:42:34.088Z,21.90
2019-02-21T01:43:34.006Z,19.60
2019-02-21T01:44:33.927Z,18.80
2019-02-21T01:45:33.849Z,21.90
2019-02-21T01:46:33.779Z,18.70
2019-02-21T01:47:33.715Z,21.80
2019-02-21T01:48:33.637Z,21.00
2019-02-21T01:49:33.559Z,20.20
2019-02-21T01:50:33.481Z,24.40
2019-02-21T01:51:33.421Z,25.00
2019-02-21T01:52:33.342Z,24.90
2019-02-21T01:53:33.274Z,27.50
2019-02-21T01:54:33.198Z,27.10
2019-02-21T01:55:33.109Z,30.10
2019-02-21T01:56:33.037Z,30.80
2019-02-21T01:57:32.971Z,30.20
2019-02-21T01:58:32.900Z,28.70
2019-02-21T01:59:32.811Z,28.80
2019-02-21T02:00:32.739Z,28.60
2019-02-21T02:01:32.665Z,26.90
2019-02-21T02:02:32.591Z,24.30
2019-02-21T02:03:32.533Z,23.00
2019-02-21T02:04:32.454Z,23.00
2019-02-21T02:05:32.378Z,22.50
2019-02-21T02:06:32.326Z,24.90
2019-02-21T02:07:32.221Z,28.50
2019-02-21T02:08:32.147Z,29.40
2019-02-21T02:09:32.068Z,31.80
2019-02-21T02:10:31.991Z,31.60
2019-02-21T02:11:31.935Z,31.70
2019-02-21T02:12:31.856Z,32.40
2019-02-21T02:13:31.775Z,32.20
2019-02-21T02:14:31.693Z,33.30
2019-02-21T02:15:31.634Z,33.30
2019-02-21T02:16:31.565Z,32.40
2019-02-21T02:17:31.484Z,31.40
2019-02-21T02:18:31.412Z,30.60
2019-02-21T02:19:31.323Z,27.50
2019-02-21T02:20:31.258Z,24.60
2019-02-21T02:21:31.184Z,22.80
2019-02-21T02:22:31.099Z,22.10
2019-02-21T02:23:31.025Z,21.70
2019-02-21T02:24:30.950Z,21.10
2019-02-21T02:25:30.873Z,21.70
2019-02-21T02:26:30.801Z,21.50
2019-02-21T02:27:30.734Z,23.60
2019-02-21T02:28:30.665Z,21.20
2019-02-21T02:29:30.573Z,20.80
2019-02-21T02:30:30.506Z,20.50
2019-02-21T02:31:30.442Z,21.50
2019-02-21T02:32:30.363Z,23.00
2019-02-21T02:33:30.298Z,20.90
2019-02-21T02:34:30.229Z,20.90
2019-02-21T02:35:30.134Z,21.40
2019-02-21T02:36:30.055Z,22.40
2019-02-21T02:37:29.978Z,21.50
2019-02-21T02:38:29.921Z,22.40
2019-02-21T02:39:29.842Z,21.10
2019-02-21T02:40:29.763Z,23.90
2019-02-21T02:41:29.692Z,28.40
2019-02-21T02:42:29.623Z,31.20
2019-02-21T02:43:29.532Z,31.30
2019-02-21T02:44:29.469Z,29.70
2019-02-21T02:45:29.397Z,29.50
2019-02-21T02:46:29.319Z,27.90
2019-02-21T02:47:29.238Z,30.50
2019-02-21T02:48:29.160Z,30.30
2019-02-21T02:49:29.084Z,31.20
2019-02-21T02:50:29.009Z,31.90
2019-02-21T02:51:28.979Z,31.40
2019-02-21T02:52:28.873Z,32.30
2019-02-21T02:53:28.800Z,31.80
2019-02-21T02:54:28.758Z,31.20
2019-02-21T02:55:28.636Z,32.50
2019-02-21T02:56:28.565Z,31.80
2019-02-21T02:57:28.488Z,32.60
2019-02-21T02:58:28.415Z,31.30
2019-02-21T02:59:40.022Z,31.00
2019-02-21T03:00:28.326Z,31.50
2019-02-21T03:01:34.916Z,31.60
2019-02-21T03:02:28.109Z,30.70
2019-02-21T03:03:28.053Z,31.70
2019-02-21T03:04:28.217Z,29.40
2019-02-21T03:05:27.898Z,30.90
2019-02-21T03:06:27.827Z,30.90
2019-02-21T03:07:27.735Z,30.10
2019-02-21T03:08:27.665Z,27.50
2019-02-21T03:09:27.599Z,24.90
2019-02-21T03:10:27.518Z,25.60
2019-02-21T03:11:27.455Z,24.80
2019-02-21T03:12:27.378Z,23.60
2019-02-21T03:13:27.306Z,22.10
2019-02-21T03:14:27.226Z,22.40
2019-02-21T03:15:27.145Z,22.70
2019-02-21T03:16:27.074Z,21.80
2019-02-21T03:17:27.015Z,21.50
2019-02-21T03:18:26.931Z,20.30
2019-02-21T03:19:26.851Z,21.50
2019-02-21T03:20:26.771Z,19.80
2019-02-21T03:21:26.693Z,19.90
2019-02-21T03:22:26.695Z,19.70
2019-02-21T03:23:26.570Z,19.70
2019-02-21T03:24:26.488Z,19.00
2019-02-21T03:25:26.400Z,20.30
2019-02-21T03:26:26.325Z,20.10
2019-02-21T03:27:26.270Z,19.00
2019-02-21T03:28:26.192Z,18.70
2019-02-21T03:29:26.115Z,19.40
2019-02-21T03:30:26.040Z,21.00
2019-02-21T03:31:25.962Z,19.50
2019-02-21T03:32:25.892Z,20.10
2019-02-21T03:33:25.815Z,19.70
2019-02-21T03:34:25.768Z,19.40
2019-02-21T03:35:25.654Z,20.10
2019-02-21T03:36:25.575Z,19.30
2019-02-21T03:37:25.533Z,18.70
2019-02-21T03:38:25.428Z,19.20
2019-02-21T03:39:25.369Z,19.10
2019-02-21T03:40:25.288Z,19.20
2019-02-21T03:41:25.212Z,20.00
2019-02-21T03:42:25.140Z,19.20
2019-02-21T03:43:25.051Z,19.20
2019-02-21T03:44:24.985Z,19.10
2019-02-21T03:45:24.905Z,19.30
2019-02-21T03:46:24.825Z,19.20
2019-02-21T03:47:24.782Z,19.30
2019-02-21T03:48:24.682Z,18.30
2019-02-21T03:49:24.600Z,20.60
2019-02-21T03:50:24.525Z,19.50
2019-02-21T03:51:24.477Z,19.50
2019-02-21T03:52:24.389Z,20.50
2019-02-21T03:53:24.312Z,19.30
2019-02-21T03:54:24.233Z,18.90
2019-02-21T03:55:24.151Z,20.20
2019-02-21T03:56:24.078Z,19.80
2019-02-21T03:57:23.998Z,18.80
2019-02-21T03:58:23.927Z,18.60
2019-02-21T03:59:23.856Z,19.20
2019-02-21T04:00:23.784Z,19.50
2019-02-21T04:01:23.708Z,19.00
2019-02-21T04:02:23.646Z,20.00
2019-02-21T04:03:23.545Z,18.50
2019-02-21T04:04:23.472Z,18.70
2019-02-21T04:05:23.412Z,19.70
2019-02-21T04:06:23.337Z,19.00
2019-02-21T04:07:23.255Z,19.80
2019-02-21T04:08:23.174Z,20.60
2019-02-21T04:09:23.091Z,19.90
2019-02-21T04:10:23.023Z,20.80
2019-02-21T04:11:22.968Z,21.00
2019-02-21T04:12:22.880Z,20.70
2019-02-21T04:13:22.804Z,21.10
2019-02-21T04:14:22.732Z,20.60
2019-02-21T04:15:22.670Z,20.90
2019-02-21T04:16:22.569Z,21.70
2019-02-21T04:17:22.493Z,20.60
2019-02-21T04:18:22.420Z,20.70
2019-02-21T04:19:22.355Z,21.70
2019-02-21T04:20:22.280Z,22.90
2019-02-21T04:21:22.189Z,22.20
2019-02-21T04:22:22.118Z,21.30
2019-02-21T04:23:22.076Z,21.40
2019-02-21T04:24:21.977Z,21.70
2019-02-21T04:25:21.903Z,22.10
2019-02-21T04:26:21.828Z,22.30
2019-02-21T04:27:21.757Z,21.10
2019-02-21T04:28:21.684Z,23.90
2019-02-21T04:29:21.596Z,20.40
2019-02-21T04:30:21.526Z,20.80
2019-02-21T04:31:21.435Z,21.20
2019-02-21T04:32:21.359Z,19.90
2019-02-21T04:33:21.302Z,20.60
2019-02-21T04:34:21.210Z,20.70
2019-02-21T04:35:21.153Z,19.90
2019-02-21T04:36:23.202Z,19.80
2019-02-21T04:37:20.981Z,20.00
2019-02-21T04:38:20.911Z,20.40
2019-02-21T04:39:20.840Z,19.90
2019-02-21T04:40:20.789Z,19.80
2019-02-21T04:41:20.702Z,21.10
2019-02-21T04:42:20.619Z,21.60
2019-02-21T04:43:20.529Z,21.80
2019-02-21T04:44:20.494Z,19.00
2019-02-21T04:45:20.382Z,20.20
2019-02-21T04:46:20.318Z,19.90
2019-02-21T04:47:20.237Z,20.80
2019-02-21T04:48:20.181Z,19.80
2019-02-21T04:49:20.087Z,21.00
2019-02-21T04:50:20.009Z,19.80
2019-02-21T04:51:19.923Z,20.00
2019-02-21T04:52:19.853Z,19.80
2019-02-21T04:53:19.793Z,19.60
2019-02-21T04:54:19.711Z,21.40
2019-02-21T04:55:19.625Z,19.30
2019-02-21T04:56:19.543Z,20.90
2019-02-21T04:57:19.478Z,18.40
2019-02-21T04:58:19.396Z,19.50
2019-02-21T04:59:19.341Z,19.70
2019-02-21T05:00:19.261Z,18.20
2019-02-21T05:01:19.179Z,19.30
2019-02-21T05:02:28.512Z,19.80
2019-02-21T05:03:19.017Z,19.50
2019-02-21T05:04:18.945Z,19.60
2019-02-21T05:05:18.868Z,19.80
2019-02-21T05:06:18.792Z,18.90
2019-02-21T05:07:18.731Z,21.00
2019-02-21T05:08:18.656Z,19.30
2019-02-21T05:09:18.566Z,20.90
2019-02-21T05:10:18.495Z,19.10
2019-02-21T05:11:18.433Z,19.30
2019-02-21T05:12:18.351Z,20.00
2019-02-21T05:13:18.276Z,18.40
2019-02-21T05:14:18.205Z,19.10
2019-02-21T05:15:18.114Z,18.90
2019-02-21T05:16:18.039Z,19.30
2019-02-21T05:17:17.962Z,19.10
2019-02-21T05:18:17.887Z,19.60
2019-02-21T05:19:17.825Z,19.20
2019-02-21T05:20:17.744Z,18.40
2019-02-21T05:21:17.671Z,19.70
2019-02-21T05:22:17.598Z,19.30
2019-02-21T05:23:17.520Z,19.30
2019-02-21T05:24:17.437Z,19.10
2019-02-21T05:25:17.370Z,18.70
2019-02-21T05:26:17.294Z,20.60
2019-02-21T05:27:17.205Z,18.60
2019-02-21T05:28:17.130Z,20.00
2019-02-21T05:29:17.051Z,22.80
2019-02-21T05:30:16.978Z,19.90
2019-02-21T05:31:16.915Z,19.50
2019-02-21T05:32:16.837Z,19.00
2019-02-21T05:33:16.751Z,20.20
2019-02-21T05:34:16.676Z,18.30
2019-02-21T05:35:16.615Z,19.80
2019-02-21T05:36:16.564Z,19.40
2019-02-21T05:37:16.461Z,19.00
2019-02-21T05:38:16.405Z,22.30
2019-02-21T05:39:16.297Z,21.00
2019-02-21T05:40:16.223Z,20.00
2019-02-21T05:41:16.158Z,19.60
2019-02-21T05:42:16.082Z,19.70
2019-02-21T05:43:15.997Z,18.80
2019-02-21T05:44:15.917Z,19.90
2019-02-21T05:45:15.856Z,19.40
2019-02-21T05:46:15.768Z,19.60
2019-02-21T05:47:15.702Z,18.40
2019-02-21T05:48:15.630Z,18.10
2019-02-21T05:49:15.550Z,18.70
2019-02-21T05:50:15.478Z,18.90
2019-02-21T05:51:15.389Z,20.20
2019-02-21T05:52:15.313Z,18.00
2019-02-21T05:53:15.242Z,17.90
2019-02-21T05:54:15.163Z,17.90
2019-02-21T05:55:15.097Z,18.30
2019-02-21T05:56:15.024Z,19.50
2019-02-21T05:57:14.943Z,17.80
2019-02-21T05:58:14.866Z,19.60
2019-02-21T05:59:14.794Z,18.20
2019-02-21T06:00:14.724Z,19.10
2019-02-21T06:01:14.643Z,18.20
2019-02-21T06:02:14.570Z,18.90
2019-02-21T06:03:14.481Z,19.30
2019-02-21T06:04:14.408Z,20.50
2019-02-21T06:05:14.341Z,20.50
2019-02-21T06:06:17.133Z,18.80
2019-02-21T06:07:14.188Z,19.00
2019-02-21T06:08:14.099Z,18.60
2019-02-21T06:09:14.021Z,19.70
2019-02-21T06:10:13.953Z,19.20
2019-02-21T06:11:13.881Z,19.10
2019-02-21T06:12:13.824Z,19.80
2019-02-21T06:13:13.737Z,19.90
2019-02-21T06:14:13.648Z,18.80
2019-02-21T06:15:13.590Z,18.90
2019-02-21T06:16:13.506Z,18.70
2019-02-21T06:17:13.426Z,19.20
2019-02-21T06:18:13.357Z,18.50
2019-02-21T06:19:13.272Z,19.40
2019-02-21T06:20:13.191Z,19.60
2019-02-21T06:21:13.115Z,19.90
2019-02-21T06:22:13.041Z,20.00
2019-02-21T06:23:13.045Z,19.90
2019-02-21T06:24:12.899Z,20.30
2019-02-21T06:25:12.824Z,19.80
2019-02-21T06:26:12.752Z,19.90
2019-02-21T06:27:12.674Z,21.20
2019-02-21T06:28:12.585Z,20.50
2019-02-21T06:29:12.528Z,20.10
2019-02-21T06:30:12.451Z,20.30
2019-02-21T06:31:12.358Z,20.80
2019-02-21T06:32:14.432Z,20.20
2019-02-21T06:33:12.205Z,20.50
2019-02-21T06:34:12.128Z,19.90
2019-02-21T06:35:12.070Z,21.60
2019-02-21T06:36:11.989Z,20.00
2019-02-21T06:37:12.765Z,19.80
2019-02-21T06:38:11.833Z,20.90
2019-02-21T06:39:11.767Z,20.10
2019-02-21T06:40:11.690Z,21.30
2019-02-21T06:41:11.607Z,20.00
2019-02-21T06:42:11.535Z,20.50
2019-02-21T06:43:11.488Z,20.10
2019-02-21T06:44:11.374Z,20.30
2019-02-21T06:45:11.317Z,21.10
2019-02-21T06:46:13.621Z,20.10
2019-02-21T06:47:11.143Z,20.00
2019-02-21T06:48:11.078Z,20.10
2019-02-21T06:49:11.005Z,20.30
2019-02-21T06:50:10.915Z,20.20
2019-02-21T06:51:10.855Z,21.50
2019-02-21T06:52:10.778Z,20.60
2019-02-21T06:53:10.701Z,20.60
2019-02-21T06:54:10.630Z,20.70
2019-02-21T06:55:10.533Z,21.40
2019-02-21T06:56:10.466Z,20.70
2019-02-21T06:57:10.382Z,21.10
2019-02-21T06:58:10.309Z,20.20
2019-02-21T06:59:10.248Z,21.10
2019-02-21T07:00:10.164Z,21.30
2019-02-21T07:01:10.081Z,22.30
2019-02-21T07:02:10.008Z,21.70
2019-02-21T07:03:15.884Z,22.20
2019-02-21T07:04:09.867Z,21.20
2019-02-21T07:05:09.791Z,21.80
2019-02-21T07:06:09.713Z,23.40
2019-02-21T07:07:09.629Z,23.00
2019-02-21T07:08:09.550Z,24.40
2019-02-21T07:09:09.481Z,24.70
2019-02-21T07:10:09.418Z,26.90
2019-02-21T07:11:09.329Z,28.00
2019-02-21T07:12:10.633Z,28.10
2019-02-21T07:13:09.187Z,28.10
2019-02-21T07:14:09.117Z,26.50
2019-02-21T07:15:09.036Z,27.30
2019-02-21T07:16:08.944Z,27.60
2019-02-21T07:17:08.964Z,28.10
2019-02-21T07:18:11.078Z,31.00
2019-02-21T07:19:10.753Z,29.70
2019-02-21T07:20:08.639Z,29.60
2019-02-21T07:21:08.563Z,30.30
2019-02-21T07:22:08.486Z,31.80
2019-02-21T07:23:08.423Z,31.40
2019-02-21T07:24:08.360Z,28.70
2019-02-21T07:25:08.270Z,27.90
2019-02-21T07:26:08.196Z,28.70
2019-02-21T07:27:08.110Z,29.70
2019-02-21T07:28:11.638Z,29.40
2019-02-21T07:29:07.956Z,27.50
2019-02-21T07:30:07.907Z,25.70
2019-02-21T07:31:07.814Z,26.40
2019-02-21T07:32:07.746Z,26.90
2019-02-21T07:33:07.666Z,26.90
2019-02-21T07:34:07.584Z,25.60
2019-02-21T07:35:07.514Z,26.80
2019-02-21T07:36:07.441Z,26.40
2019-02-21T07:37:17.814Z,24.30
2019-02-21T07:38:07.340Z,25.30
2019-02-21T07:39:17.049Z,28.10
2019-02-21T07:40:07.131Z,25.40
2019-02-21T07:41:07.148Z,25.30
2019-02-21T07:42:06.984Z,25.90
2019-02-21T07:43:06.898Z,25.40
2019-02-21T07:44:12.036Z,26.60
2019-02-21T07:45:06.837Z,26.90
2019-02-21T07:46:07.034Z,28.10
2019-02-21T07:47:06.610Z,28.40
2019-02-21T07:48:06.537Z,26.80
2019-02-21T07:49:06.445Z,26.60
2019-02-21T07:50:06.374Z,27.20
2019-02-21T07:51:06.310Z,27.00
2019-02-21T07:52:06.233Z,26.90
2019-02-21T07:53:06.159Z,28.10
2019-02-21T07:54:06.078Z,27.80
2019-02-21T07:55:05.997Z,28.80
2019-02-21T07:56:05.958Z,30.10
2019-02-21T07:57:08.398Z,31.10
2019-02-21T07:58:05.774Z,28.10
2019-02-21T07:59:05.716Z,28.40
2019-02-21T08:00:05.630Z,31.70
2019-02-21T08:01:05.582Z,29.20
2019-02-21T08:02:05.481Z,28.70
2019-02-21T08:03:05.394Z,28.80
2019-02-21T08:04:05.321Z,29.40
2019-02-21T08:05:05.253Z,27.90
2019-02-21T08:06:05.179Z,27.70
2019-02-21T08:07:05.096Z,27.40
2019-02-21T08:08:05.021Z,29.20
2019-02-21T08:09:04.945Z,29.40
2019-02-21T08:10:04.874Z,29.10
2019-02-21T08:11:06.988Z,29.80
2019-02-21T08:12:04.732Z,30.30
2019-02-21T08:13:04.665Z,29.00
2019-02-21T08:14:04.590Z,29.80
2019-02-21T08:15:04.502Z,29.00
2019-02-21T08:16:04.424Z,28.80
2019-02-21T08:17:04.352Z,30.30
2019-02-21T08:18:04.280Z,28.60
2019-02-21T08:19:04.213Z,29.50
2019-02-21T08:20:08.405Z,30.20
2019-02-21T08:21:04.055Z,30.60
2019-02-21T08:22:04.009Z,30.80
2019-02-21T08:23:03.919Z,30.70
2019-02-21T08:24:03.845Z,29.70
2019-02-21T08:25:03.773Z,29.80
2019-02-21T08:26:03.712Z,29.70
2019-02-21T08:27:03.611Z,32.60
2019-02-21T08:28:03.536Z,29.70
2019-02-21T08:29:06.014Z,30.80
2019-02-21T08:30:03.395Z,30.20
2019-02-21T08:31:03.329Z,31.10
2019-02-21T08:32:03.260Z,32.00
2019-02-21T08:33:03.179Z,30.90
2019-02-21T08:34:04.281Z,30.10
2019-02-21T08:35:03.023Z,30.40
2019-02-21T08:36:02.941Z,29.40
2019-02-21T08:37:02.887Z,30.30
2019-02-21T08:38:02.851Z,30.40
2019-02-21T08:39:02.738Z,30.10
2019-02-21T08:40:02.654Z,32.20
2019-02-21T08:41:02.580Z,31.10
2019-02-21T08:42:02.511Z,31.40
2019-02-21T08:43:04.092Z,31.60
2019-02-21T08:44:02.373Z,31.20
2019-02-21T08:45:02.286Z,31.30
2019-02-21T08:46:02.211Z,32.40
2019-02-21T08:47:02.150Z,32.00
2019-02-21T08:48:02.079Z,31.60
2019-02-21T08:49:02.012Z,32.90
2019-02-21T08:50:01.929Z,30.50
2019-02-21T08:51:01.854Z,31.00
2019-02-21T08:52:01.779Z,32.10
2019-02-21T08:53:01.716Z,33.30
2019-02-21T08:54:01.649Z,32.20
2019-02-21T08:55:01.559Z,33.40
2019-02-21T08:56:01.482Z,33.60
2019-02-21T08:57:01.413Z,32.70
2019-02-21T08:58:01.347Z,32.70
2019-02-21T08:59:01.295Z,33.50
2019-02-21T09:00:01.207Z,33.30
2019-02-21T09:01:01.148Z,35.50
2019-02-21T09:02:01.082Z,34.10
2019-02-21T09:03:00.975Z,34.80
2019-02-21T09:04:09.905Z,34.40
2019-02-21T09:05:00.832Z,33.80
2019-02-21T09:06:00.777Z,34.60
2019-02-21T09:07:00.708Z,34.20
2019-02-21T09:08:00.629Z,34.90
2019-02-21T09:09:00.544Z,33.80
2019-02-21T09:10:00.474Z,35.50
2019-02-21T09:11:00.422Z,35.60
2019-02-21T09:12:00.339Z,35.80
2019-02-21T09:13:00.268Z,34.50
2019-02-21T09:14:00.197Z,35.90
2019-02-21T09:15:00.426Z,35.40
2019-02-21T09:16:00.039Z,35.20
2019-02-21T09:16:59.969Z,34.40
2019-02-21T09:17:59.894Z,34.70
2019-02-21T09:18:59.845Z,34.50
2019-02-21T09:19:59.766Z,33.90
2019-02-21T09:20:59.698Z,37.80
2019-02-21T09:21:59.617Z,35.20
2019-02-21T09:22:59.547Z,37.10
2019-02-21T09:23:59.462Z,35.70
2019-02-21T09:24:59.407Z,35.60
2019-02-21T09:25:59.337Z,34.40
2019-02-21T09:27:00.286Z,36.00
2019-02-21T09:27:59.968Z,35.90
2019-02-21T09:28:59.105Z,36.60
2019-02-21T09:29:59.036Z,36.10
2019-02-21T09:30:58.974Z,38.30
2019-02-21T09:31:58.907Z,38.50
2019-02-21T09:32:58.837Z,39.40
2019-02-21T09:33:58.763Z,38.30
2019-02-21T09:34:58.824Z,40.90
2019-02-21T09:35:58.607Z,38.70
2019-02-21T09:36:58.537Z,40.00
2019-02-21T09:37:58.467Z,41.80
2019-02-21T09:38:58.407Z,42.50
2019-02-21T09:39:58.332Z,45.40
2019-02-21T09:40:58.293Z,43.60
2019-02-21T09:41:58.181Z,45.90
2019-02-21T09:42:58.138Z,43.30
2019-02-21T09:43:58.043Z,45.30
2019-02-21T09:44:57.990Z,45.30
2019-02-21T09:45:57.909Z,44.30
2019-02-21T09:46:57.835Z,45.70
2019-02-21T09:47:57.747Z,44.80
2019-02-21T09:48:57.687Z,46.60
2019-02-21T09:49:57.619Z,45.50
2019-02-21T09:50:57.540Z,47.20
2019-02-21T09:51:57.465Z,48.20
2019-02-21T09:52:57.395Z,47.30
2019-02-21T09:53:57.409Z,49.20
2019-02-21T09:54:57.266Z,46.80
2019-02-21T09:55:57.193Z,47.60
2019-02-21T09:56:57.108Z,46.90
2019-02-21T09:57:57.035Z,46.70
2019-02-21T09:58:56.975Z,46.80
2019-02-21T09:59:56.899Z,46.80
2019-02-21T10:00:56.834Z,44.40
2019-02-21T10:01:57.607Z,44.80
2019-02-21T10:02:56.867Z,43.90
2019-02-21T10:03:57.355Z,43.60
2019-02-21T10:05:04.482Z,42.50
2019-02-21T10:05:56.467Z,43.00
2019-02-21T10:06:56.466Z,42.10
2019-02-21T10:07:56.336Z,42.30
2019-02-21T10:08:56.261Z,42.60
2019-02-21T10:09:56.189Z,41.60
2019-02-21T10:10:56.104Z,42.20
2019-02-21T10:11:56.030Z,40.80
2019-02-21T10:12:55.975Z,41.80
2019-02-21T10:13:55.934Z,41.20
2019-02-21T10:14:55.823Z,40.30
2019-02-21T10:15:55.824Z,40.60
2019-02-21T10:16:55.709Z,41.80
2019-02-21T10:17:55.603Z,40.90
2019-02-21T10:18:55.549Z,41.00
2019-02-21T10:19:55.481Z,41.90
2019-02-21T10:20:55.395Z,44.00
2019-02-21T10:21:55.320Z,43.60
2019-02-21T10:22:55.261Z,45.40
2019-02-21T10:23:56.710Z,43.60
2019-02-21T10:24:56.965Z,45.40
2019-02-21T10:25:55.056Z,46.50
2019-02-21T10:26:54.961Z,50.40
2019-02-21T10:27:54.910Z,49.40
2019-02-21T10:28:54.829Z,51.00
2019-02-21T10:29:54.762Z,48.60
2019-02-21T10:30:54.674Z,51.00
2019-02-21T10:31:54.600Z,50.70
2019-02-21T10:32:54.533Z,50.50
2019-02-21T10:33:54.463Z,52.40
2019-02-21T10:34:54.428Z,48.70
2019-02-21T10:35:54.325Z,47.40
2019-02-21T10:36:54.260Z,44.40
2019-02-21T10:37:54.188Z,42.20
2019-02-21T10:38:54.102Z,43.80
2019-02-21T10:39:54.035Z,44.90
2019-02-21T10:40:53.962Z,46.20
2019-02-21T10:41:53.892Z,44.80
2019-02-21T10:42:53.828Z,43.10
2019-02-21T10:43:53.759Z,42.00
2019-02-21T10:44:53.670Z,42.70
2019-02-21T10:45:53.604Z,41.90
2019-02-21T10:46:53.538Z,41.20
2019-02-21T10:47:53.468Z,41.80
2019-02-21T10:48:53.399Z,41.90
2019-02-21T10:49:53.326Z,43.00
2019-02-21T10:50:53.244Z,43.80
2019-02-21T10:51:53.174Z,43.90
2019-02-21T10:52:53.109Z,42.00
2019-02-21T10:53:53.038Z,40.80
2019-02-21T10:54:52.990Z,40.30
2019-02-21T10:55:52.883Z,39.10
2019-02-21T10:56:52.815Z,40.90
2019-02-21T10:57:52.754Z,40.80
2019-02-21T10:58:52.679Z,39.70
2019-02-21T10:59:52.612Z,37.60
2019-02-21T11:00:52.524Z,38.00
2019-02-21T11:01:52.458Z,39.50
2019-02-21T11:02:52.395Z,40.60
2019-02-21T11:03:52.328Z,38.80
2019-02-21T11:04:55.080Z,37.50
2019-02-21T11:05:52.181Z,37.90
2019-02-21T11:06:52.133Z,39.90
2019-02-21T11:07:52.026Z,37.80
2019-02-21T11:08:51.957Z,38.90
2019-02-21T11:09:51.896Z,37.60
2019-02-21T11:10:51.822Z,36.40
2019-02-21T11:11:51.751Z,36.50
2019-02-21T11:12:51.692Z,37.70
2019-02-21T11:13:51.592Z,37.00
2019-02-21T11:14:51.531Z,38.00
2019-02-21T11:15:51.461Z,37.60
2019-02-21T11:16:51.398Z,36.50
2019-02-21T11:17:51.308Z,38.20
2019-02-21T11:18:51.236Z,40.10
2019-02-21T11:19:51.164Z,39.40
2019-02-21T11:20:51.087Z,40.30
2019-02-21T11:21:51.048Z,40.70
2019-02-21T11:22:50.965Z,41.10
2019-02-21T11:23:50.890Z,41.40
2019-02-21T11:24:50.822Z,42.10
2019-02-21T11:25:50.739Z,42.40
2019-02-21T11:26:50.659Z,40.40
2019-02-21T11:27:50.590Z,40.60
2019-02-21T11:28:50.522Z,40.20
2019-02-21T11:29:50.466Z,40.00
2019-02-21T11:30:50.393Z,38.80
2019-02-21T11:31:50.318Z,38.40
2019-02-21T11:32:50.235Z,37.70
2019-02-21T11:33:50.170Z,37.00
2019-02-21T11:34:50.102Z,36.10
2019-02-21T11:35:50.031Z,36.80
2019-02-21T11:36:49.960Z,36.90
2019-02-21T11:37:49.878Z,34.30
2019-02-21T11:38:49.824Z,34.80
2019-02-21T11:39:49.746Z,35.00
2019-02-21T11:40:49.659Z,36.90
2019-02-21T11:41:49.604Z,35.50
2019-02-21T11:42:49.530Z,33.20
2019-02-21T11:43:49.462Z,33.80
2019-02-21T11:44:49.393Z,34.90
2019-02-21T11:45:53.848Z,34.90
2019-02-21T11:46:49.236Z,35.10
2019-02-21T11:47:49.181Z,35.90
2019-02-21T11:48:49.106Z,34.80
2019-02-21T11:49:49.044Z,30.50
2019-02-21T11:50:49.017Z,29.50
2019-02-21T11:51:48.877Z,30.30
2019-02-21T11:52:48.809Z,30.50
2019-02-21T11:53:48.751Z,30.80
2019-02-21T11:54:48.675Z,31.60
2019-02-21T11:55:48.594Z,29.50
2019-02-21T11:56:48.518Z,28.30
2019-02-21T11:57:48.465Z,28.20
2019-02-21T11:58:48.389Z,28.00
2019-02-21T11:59:48.363Z,27.70
2019-02-21T12:00:48.249Z,27.50
2019-02-21T12:01:48.169Z,28.70
2019-02-21T12:02:48.091Z,28.20
2019-02-21T12:03:48.038Z,29.20
2019-02-21T12:04:47.964Z,29.10
2019-02-21T12:05:47.876Z,28.80
2019-02-21T12:06:47.831Z,30.40
2019-02-21T12:07:47.738Z,31.10
2019-02-21T12:08:47.684Z,32.00
2019-02-21T12:09:47.606Z,32.50
2019-02-21T12:10:47.553Z,31.40
2019-02-21T12:11:47.461Z,28.00
2019-02-21T12:12:47.394Z,25.50
2019-02-21T12:13:47.306Z,25.50
2019-02-21T12:14:47.238Z,27.10
2019-02-21T12:15:47.165Z,27.40
2019-02-21T12:16:47.117Z,27.50
2019-02-21T12:17:47.036Z,27.60
2019-02-21T12:18:46.966Z,28.40
2019-02-21T12:19:46.878Z,27.60
2019-02-21T12:20:46.809Z,28.30
2019-02-21T12:21:46.750Z,27.00
2019-02-21T12:22:46.724Z,26.50
2019-02-21T12:23:46.607Z,25.00
2019-02-21T12:24:46.535Z,25.90
2019-02-21T12:25:46.455Z,26.30
2019-02-21T12:26:46.381Z,26.60
2019-02-21T12:27:46.309Z,26.30
2019-02-21T12:28:46.236Z,27.60
2019-02-21T12:29:46.183Z,28.10
2019-02-21T12:30:46.112Z,28.70
2019-02-21T12:31:46.038Z,29.10
2019-02-21T12:32:45.970Z,28.60
2019-02-21T12:33:45.887Z,27.70
2019-02-21T12:34:45.811Z,28.50
2019-02-21T12:35:45.754Z,28.90
2019-02-21T12:36:45.683Z,30.40
2019-02-21T12:37:45.624Z,30.10
2019-02-21T12:38:45.527Z,30.70
2019-02-21T12:39:45.470Z,31.90
2019-02-21T12:40:45.384Z,31.70
2019-02-21T12:41:45.352Z,31.50
2019-02-21T12:42:45.252Z,31.50
2019-02-21T12:43:45.182Z,32.00
2019-02-21T12:44:47.715Z,30.90
2019-02-21T12:45:45.096Z,31.20
2019-02-21T12:46:45.727Z,31.40
2019-02-21T12:47:50.918Z,32.80
2019-02-21T12:48:44.817Z,33.90
2019-02-21T12:49:44.756Z,34.20
2019-02-21T12:50:44.767Z,34.00
2019-02-21T12:51:44.602Z,32.40